Time;durP1;ratioP1;P1;durP2;ratioP2;P2;SDS_P1;SDS_P2;PMS_P1;PMS_P2;Temp;Humidity;BMP_temperature;BMP_pressure;BME280_temperature;BME280_humidity;BME280_pressure;Samples;Min_cycle;Max_cycle;Signal;HPM_P1;HPM_P2
2022/04/01 00:00:14;;;;;;;9.32;3.10;;;0.80;99.90;;;;;;5043002;28;20402;-32
2022/04/01 00:02:41;;;;;;;4.65;3.10;;;0.80;99.90;;;;;;5040135;28;20045;-33
2022/04/01 00:05:09;;;;;;;8.82;3.33;;;0.80;99.90;;;;;;5065669;28;20523;-32
2022/04/01 00:07:36;;;;;;;7.57;3.10;;;0.80;99.90;;;;;;5050213;28;20056;-33
2022/04/01 00:10:03;;;;;;;6.18;3.42;;;0.80;99.90;;;;;;5032308;28;20053;-33
2022/04/01 00:12:29;;;;;;;5.15;3.00;;;0.80;99.90;;;;;;5031323;28;20045;-32
2022/04/01 00:14:56;;;;;;;4.47;2.50;;;0.80;99.90;;;;;;5048599;28;20132;-33
2022/04/01 00:17:23;;;;;;;5.82;3.00;;;0.80;99.90;;;;;;5040276;28;20071;-35
2022/04/01 00:19:50;;;;;;;8.35;2.80;;;0.80;99.90;;;;;;5048241;28;20045;-33
2022/04/01 00:22:18;;;;;;;6.68;3.00;;;0.80;99.90;;;;;;5051819;28;20051;-33
2022/04/01 00:24:45;;;;;;;6.03;2.40;;;0.90;99.90;;;;;;5048662;28;20073;-33
2022/04/01 00:27:12;;;;;;;5.93;2.85;;;0.80;99.90;;;;;;5050948;28;20075;-33
2022/04/01 00:29:39;;;;;;;7.40;3.22;;;0.80;99.90;;;;;;5043315;28;20153;-33
2022/04/01 00:32:06;;;;;;;7.80;3.10;;;0.80;99.90;;;;;;5050720;28;20144;-33
2022/04/01 00:34:36;;;;;;;4.40;2.80;;;0.80;99.90;;;;;;5051349;28;20049;-34
2022/04/01 00:37:03;;;;;;;6.10;2.65;;;0.80;99.90;;;;;;5051736;28;20152;-33
2022/04/01 00:39:31;;;;;;;5.20;3.28;;;0.80;99.90;;;;;;5048994;28;20053;-33
2022/04/01 00:41:58;;;;;;;7.95;2.85;;;0.80;99.90;;;;;;5051728;28;20076;-33
2022/04/01 00:44:26;;;;;;;5.15;2.90;;;0.80;99.90;;;;;;5042404;28;20041;-33
2022/04/01 00:46:54;;;;;;;4.93;2.50;;;0.90;99.90;;;;;;5051607;28;20140;-32
2022/04/01 00:49:21;;;;;;;5.65;2.28;;;0.90;99.90;;;;;;5050830;28;20618;-33
2022/04/01 00:51:49;;;;;;;5.40;2.63;;;0.90;99.90;;;;;;5041050;28;20053;-33
2022/04/01 00:54:16;;;;;;;5.60;2.60;;;0.90;99.90;;;;;;5047191;28;20049;-32
2022/04/01 00:56:44;;;;;;;5.50;2.60;;;0.90;99.90;;;;;;5052097;28;20140;-33
2022/04/01 00:59:11;;;;;;;3.92;2.33;;;0.90;99.90;;;;;;5049545;28;20481;-33
2022/04/01 01:01:40;;;;;;;5.55;2.30;;;0.90;99.90;;;;;;5048682;28;20133;-33
2022/04/01 01:04:08;;;;;;;5.15;2.72;;;0.90;99.90;;;;;;5048105;28;20041;-33
2022/04/01 01:06:39;;;;;;;5.93;2.67;;;0.90;99.90;;;;;;5044867;28;20053;-34
2022/04/01 01:09:06;;;;;;;;;;;0.90;99.90;;;;;;5048811;28;20049;-34
2022/04/01 01:11:34;;;;;;;3.72;2.22;;;0.90;99.90;;;;;;5033358;28;19925;-34
2022/04/01 01:14:02;;;;;;;8.60;2.65;;;0.90;99.90;;;;;;5042041;28;20352;-34
2022/04/01 01:16:29;;;;;;;3.10;2.40;;;0.90;99.90;;;;;;5047497;28;20129;-34
2022/04/01 01:19:00;;;;;;;6.00;2.45;;;0.90;99.90;;;;;;5044472;28;20044;-34
2022/04/01 01:21:27;;;;;;;7.63;2.55;;;1.00;99.90;;;;;;5039682;28;20054;-34
2022/04/01 01:23:57;;;;;;;8.05;2.33;;;1.00;99.90;;;;;;5049021;28;20055;-34
2022/04/01 01:26:26;;;;;;;4.57;2.20;;;1.00;99.90;;;;;;5053593;28;20049;-34
2022/04/01 01:28:53;;;;;;;7.40;2.90;;;1.00;99.90;;;;;;5052584;28;20060;-34
2022/04/01 01:31:20;;;;;;;3.20;2.03;;;1.00;99.90;;;;;;5054263;28;20091;-34
2022/04/01 01:33:46;;;;;;;7.03;2.40;;;1.00;99.90;;;;;;5052453;28;20397;-35
2022/04/01 01:36:13;;;;;;;5.57;2.70;;;1.10;99.90;;;;;;5052228;28;20057;-34
2022/04/01 01:38:40;;;;;;;6.47;3.33;;;1.10;99.90;;;;;;5053388;28;20055;-34
2022/04/01 01:41:06;;;;;;;7.18;2.50;;;1.10;99.90;;;;;;5054274;28;20052;-34
2022/04/01 01:43:34;;;;;;;3.80;2.42;;;1.10;99.90;;;;;;5054524;28;20056;-34
2022/04/01 01:46:01;;;;;;;3.80;2.17;;;1.10;99.90;;;;;;5053994;28;20124;-33
2022/04/01 01:48:28;;;;;;;4.88;2.45;;;1.10;99.90;;;;;;5053452;28;20045;-34
2022/04/01 01:56:23;;;;;;;4.38;2.85;;;1.10;99.90;;;;;;5052550;28;20162;-34
2022/04/01 01:58:51;;;;;;;4.47;2.75;;;1.20;99.90;;;;;;5054091;28;20049;-34
2022/04/01 02:01:18;;;;;;;4.85;2.08;;;1.10;99.90;;;;;;5053474;28;20040;-34
2022/04/01 02:03:44;;;;;;;4.53;2.40;;;1.20;99.90;;;;;;5052351;28;20045;-33
2022/04/01 02:06:11;;;;;;;4.72;2.53;;;1.10;99.90;;;;;;5054005;28;20044;-33
2022/04/01 02:08:38;;;;;;;5.97;2.55;;;1.10;99.90;;;;;;5051530;28;20057;-34
2022/04/01 02:11:05;;;;;;;6.32;2.15;;;1.10;99.90;;;;;;5051680;28;20041;-34
2022/04/01 02:13:31;;;;;;;5.25;2.40;;;1.10;99.90;;;;;;5052739;28;20048;-34
2022/04/01 02:16:00;;;;;;;4.63;2.55;;;1.10;99.90;;;;;;5051933;28;20143;-34
2022/04/01 02:18:27;;;;;;;5.97;2.53;;;1.10;99.90;;;;;;5051908;28;20063;-34
2022/04/01 02:20:54;;;;;;;5.72;2.50;;;1.10;99.90;;;;;;5050141;28;20132;-33
2022/04/01 02:23:21;;;;;;;6.35;2.60;;;1.20;99.90;;;;;;5052686;28;20049;-34
2022/04/01 02:25:47;;;;;;;4.07;2.13;;;1.20;99.90;;;;;;5051978;28;20382;-34
2022/04/01 02:28:14;;;;;;;4.80;2.72;;;1.20;99.90;;;;;;5052096;28;20045;-33
2022/04/01 02:30:41;;;;;;;5.53;2.70;;;1.20;99.90;;;;;;5053876;28;20132;-34
2022/04/01 02:33:09;;;;;;;4.57;2.63;;;1.20;99.90;;;;;;5053118;28;20087;-34
2022/04/01 02:35:35;;;;;;;6.13;2.67;;;1.20;99.90;;;;;;5041334;28;20126;-34
2022/04/01 02:38:02;;;;;;;4.43;2.30;;;1.20;99.90;;;;;;5050124;28;20136;-34
2022/04/01 02:40:29;;;;;;;7.50;2.90;;;1.10;99.90;;;;;;5053346;28;20045;-34
2022/04/01 02:42:58;;;;;;;5.38;2.80;;;1.10;99.90;;;;;;5043481;28;20077;-33
2022/04/01 02:45:24;;;;;;;5.10;2.90;;;1.10;99.90;;;;;;5033881;28;20064;-35
2022/04/01 02:47:51;;;;;;;5.85;2.75;;;1.10;99.90;;;;;;5032627;28;20068;-35
2022/04/01 02:50:20;;;;;;;7.38;2.70;;;1.00;99.90;;;;;;5051659;28;20049;-34
2022/04/01 02:52:46;;;;;;;5.30;3.10;;;1.00;99.90;;;;;;5052002;28;20045;-34
2022/04/01 02:55:13;;;;;;;4.57;2.80;;;1.00;99.90;;;;;;5051848;28;20136;-34
2022/04/01 02:57:40;;;;;;;4.03;3.17;;;1.00;99.90;;;;;;5051419;28;20509;-34
2022/04/01 03:00:09;;;;;;;5.50;2.50;;;1.00;99.90;;;;;;5036201;28;20409;-34
2022/04/01 03:02:36;;;;;;;5.13;2.55;;;1.00;99.90;;;;;;5033746;28;20129;-34
2022/04/01 03:05:04;;;;;;;5.15;2.47;;;1.00;99.90;;;;;;5033707;28;20107;-34
2022/04/01 03:07:32;;;;;;;5.78;2.60;;;1.00;99.90;;;;;;5049300;28;20049;-34
2022/04/01 03:09:59;;;;;;;5.47;2.70;;;1.00;99.90;;;;;;5044274;28;20333;-34
2022/04/01 03:12:26;;;;;;;5.55;2.58;;;1.00;99.90;;;;;;5052210;28;20140;-33
2022/04/01 03:14:53;;;;;;;3.03;2.20;;;1.00;99.90;;;;;;5051882;28;20512;-34
2022/04/01 03:17:19;;;;;;;5.95;2.60;;;1.00;99.90;;;;;;5051081;28;20061;-33
2022/04/01 03:19:46;;;;;;;4.10;2.17;;;1.00;99.90;;;;;;5052215;28;20051;-33
2022/04/01 03:22:13;;;;;;;5.63;2.22;;;1.10;99.90;;;;;;5051721;28;20053;-33
2022/04/01 03:24:42;;;;;;;3.47;2.30;;;1.10;99.90;;;;;;5051569;28;20110;-34
2022/04/01 03:27:12;;;;;;;5.55;2.28;;;1.10;99.90;;;;;;5052238;28;20063;-33
2022/04/01 03:29:38;;;;;;;8.20;2.38;;;1.20;99.90;;;;;;5050917;28;20075;-34
2022/04/01 03:32:05;;;;;;;3.58;1.90;;;1.20;99.90;;;;;;5051570;28;20067;-33
2022/04/01 03:34:33;;;;;;;7.40;2.22;;;1.20;99.90;;;;;;5038063;28;20067;-33
2022/04/01 03:36:59;;;;;;;4.93;2.20;;;1.20;99.90;;;;;;5052653;28;20049;-33
2022/04/01 03:39:26;;;;;;;4.28;2.15;;;1.30;99.90;;;;;;5051928;28;20095;-33
2022/04/01 03:41:54;;;;;;;5.25;2.22;;;1.30;99.90;;;;;;5052344;28;20057;-33
2022/04/01 03:44:24;;;;;;;6.38;2.92;;;1.30;99.90;;;;;;5049874;28;20478;-33
2022/04/01 03:46:51;;;;;;;6.18;2.00;;;1.30;99.90;;;;;;5042534;28;20060;-34
2022/04/01 03:49:21;;;;;;;6.10;2.25;;;1.30;99.90;;;;;;5050725;28;20049;-33
2022/04/01 03:51:49;;;;;;;7.10;2.17;;;1.30;99.90;;;;;;5051732;28;20067;-33
2022/04/01 03:54:16;;;;;;;5.38;2.10;;;1.40;99.90;;;;;;5047942;28;20049;-33
2022/04/01 03:56:43;;;;;;;4.47;2.28;;;1.40;99.90;;;;;;5049666;28;20401;-33
2022/04/01 03:59:12;;;;;;;6.47;2.08;;;1.40;99.90;;;;;;5050740;28;20558;-33
2022/04/01 04:01:39;;;;;;;3.50;1.80;;;1.40;99.90;;;;;;5048965;28;20063;-33
2022/04/01 04:04:06;;;;;;;2.97;2.10;;;1.40;99.90;;;;;;5038212;28;20397;-33
2022/04/01 04:06:34;;;;;;;4.65;2.20;;;1.40;99.90;;;;;;5035714;28;20054;-33
2022/04/01 04:09:02;;;;;;;11.88;2.30;;;1.40;99.90;;;;;;5037661;28;20077;-33
2022/04/01 04:11:29;;;;;;;5.25;2.08;;;1.50;99.90;;;;;;5048184;28;20139;-34
2022/04/01 04:13:57;;;;;;;7.55;2.67;;;1.50;99.90;;;;;;5050464;28;20053;-33
2022/04/01 04:16:29;;;;;;;4.40;2.35;;;1.50;99.90;;;;;;5042600;28;20061;-34
2022/04/01 04:19:01;;;;;;;4.47;2.40;;;1.50;99.90;;;;;;5047718;28;20049;-33
2022/04/01 04:21:29;;;;;;;13.88;2.55;;;1.50;99.90;;;;;;5049029;28;20041;-33
2022/04/01 04:23:56;;;;;;;5.38;2.03;;;1.60;99.90;;;;;;5046919;28;20468;-33
2022/04/01 04:26:25;;;;;;;3.75;2.00;;;1.60;99.90;;;;;;5050875;28;20404;-34
2022/04/01 04:28:56;;;;;;;6.30;2.00;;;1.60;99.90;;;;;;5035550;28;20060;-34
2022/04/01 04:31:27;;;;;;;6.32;2.33;;;1.60;99.90;;;;;;5039031;28;20045;-33
2022/04/01 04:33:56;;;;;;;3.20;1.70;;;1.60;99.90;;;;;;5042188;28;20064;-33
2022/04/01 04:36:25;;;;;;;4.13;2.38;;;1.60;99.90;;;;;;5050129;28;20425;-34
2022/04/01 04:38:52;;;;;;;3.83;2.60;;;1.60;99.90;;;;;;5048086;28;20386;-33
2022/04/01 04:41:18;;;;;;;3.80;2.05;;;1.60;99.90;;;;;;5050172;28;20052;-33
2022/04/01 04:43:45;;;;;;;7.68;1.90;;;1.60;99.90;;;;;;5050906;28;20052;-34
2022/04/01 04:46:12;;;;;;;6.38;2.35;;;1.70;99.90;;;;;;5049838;28;20056;-34
2022/04/01 04:48:41;;;;;;;4.40;2.10;;;1.70;99.90;;;;;;5047203;28;20049;-34
2022/04/01 04:51:08;;;;;;;5.70;2.50;;;1.60;99.90;;;;;;5047188;28;20052;-34
2022/04/01 04:53:35;;;;;;;7.60;1.95;;;1.70;99.90;;;;;;5052275;28;20057;-34
2022/04/01 04:56:02;;;;;;;5.32;2.40;;;1.70;99.90;;;;;;5046191;28;20524;-34
2022/04/01 04:58:31;;;;;;;10.73;2.50;;;1.70;99.90;;;;;;5053906;28;20447;-34
2022/04/01 05:01:01;;;;;;;7.70;2.13;;;1.70;99.90;;;;;;5052062;28;20045;-34
2022/04/01 05:03:36;;;;;;;5.60;2.10;;;1.70;99.90;;;;;;5047553;28;20053;-33
2022/04/01 05:06:06;;;;;;;4.28;2.20;;;1.70;99.90;;;;;;5049693;28;20507;-34
2022/04/01 05:08:41;;;;;;;5.20;1.80;;;1.70;99.90;;;;;;5054517;28;20322;-34
2022/04/01 05:11:11;;;;;;;4.80;2.00;;;1.80;99.90;;;;;;5053241;28;20056;-34
2022/04/01 05:13:43;;;;;;;6.15;1.83;;;1.70;99.90;;;;;;5049406;28;20556;-34
2022/04/01 05:16:18;;;;;;;9.05;2.33;;;1.70;99.90;;;;;;5050780;28;20116;-33
2022/04/01 05:18:49;;;;;;;5.55;1.88;;;1.70;99.90;;;;;;5053639;28;20053;-33
2022/04/01 05:21:20;;;;;;;5.03;1.77;;;1.80;99.90;;;;;;5048676;28;20049;-34
2022/04/01 05:23:51;;;;;;;5.05;1.85;;;1.80;99.90;;;;;;5049047;28;20057;-34
2022/04/01 05:26:22;;;;;;;7.20;1.88;;;1.80;99.90;;;;;;5058538;28;20047;-34
2022/04/01 05:28:52;;;;;;;4.30;1.85;;;1.80;99.90;;;;;;5064182;28;20045;-33
2022/04/01 05:31:20;;;;;;;3.78;2.05;;;1.80;99.90;;;;;;5045817;28;20145;-33
2022/04/01 05:33:52;;;;;;;3.63;1.88;;;1.90;99.90;;;;;;5036480;28;20045;-34
2022/04/01 05:36:22;;;;;;;6.18;2.83;;;1.90;99.90;;;;;;5054977;28;20124;-34
2022/04/01 05:38:49;;;;;;;9.00;3.53;;;1.80;99.90;;;;;;5053040;28;20401;-34
2022/04/01 05:41:19;;;;;;;4.22;2.75;;;1.90;99.90;;;;;;5050398;28;20053;-34
2022/04/01 05:43:47;;;;;;;8.07;3.17;;;1.90;99.90;;;;;;5053451;28;20114;-34
2022/04/01 05:46:14;;;;;;;4.55;3.08;;;1.90;99.90;;;;;;5053866;28;20060;-34
2022/04/01 05:48:41;;;;;;;8.27;3.15;;;1.90;99.90;;;;;;5054305;28;20051;-34
2022/04/01 05:51:08;;;;;;;7.10;2.08;;;1.90;99.90;;;;;;5052591;28;20147;-33
2022/04/01 05:53:36;;;;;;;6.55;2.05;;;1.90;99.90;;;;;;5052927;28;20080;-33
2022/04/01 05:56:03;;;;;;;5.80;3.05;;;2.00;99.90;;;;;;5066899;28;20080;-34
2022/04/01 05:58:30;;;;;;;7.53;2.80;;;2.00;99.90;;;;;;5045869;28;20045;-33
2022/04/01 06:01:02;;;;;;;5.82;2.60;;;2.00;99.90;;;;;;5050864;28;20049;-33
2022/04/01 06:03:53;;;;;;;9.60;1.90;;;2.00;99.90;;;;;;5035723;28;20063;-33
2022/04/01 06:06:21;;;;;;;3.15;1.60;;;2.00;99.90;;;;;;5045602;28;20037;-33
2022/04/01 06:08:54;;;;;;;4.88;1.80;;;2.00;99.90;;;;;;5036512;28;20055;-34
2022/04/01 06:11:34;;;;;;;10.32;2.13;;;2.00;99.90;;;;;;5041004;28;20390;-35
2022/04/01 06:14:03;;;;;;;6.13;1.98;;;2.10;99.90;;;;;;5045126;28;20045;-33
2022/04/01 06:16:33;;;;;;;9.30;2.10;;;2.10;99.90;;;;;;5041555;28;20053;-33
2022/04/01 06:19:04;;;;;;;4.47;2.28;;;2.10;99.90;;;;;;5049876;28;20127;-33
2022/04/01 06:21:37;;;;;;;6.03;2.67;;;2.10;99.90;;;;;;5039728;28;20057;-34
2022/04/01 06:24:09;;;;;;;3.10;1.75;;;2.20;99.90;;;;;;5045939;28;20051;-34
2022/04/01 06:26:40;;;;;;;5.60;1.58;;;2.20;99.90;;;;;;5050348;28;20037;-34
2022/04/01 06:29:20;;;;;;;4.38;1.70;;;2.20;99.90;;;;;;5049896;28;20460;-34
2022/04/01 06:31:49;;;;;;;3.55;1.67;;;2.20;99.90;;;;;;5048620;28;20388;-33
2022/04/01 06:34:18;;;;;;;2.33;1.70;;;2.30;99.90;;;;;;5042624;28;20049;-34
2022/04/01 06:36:48;;;;;;;5.20;1.60;;;2.30;99.90;;;;;;5048443;28;20071;-34
2022/04/01 06:39:21;;;;;;;3.38;1.67;;;2.30;99.90;;;;;;5042613;28;20140;-34
2022/04/01 06:41:48;;;;;;;5.45;1.80;;;2.40;99.90;;;;;;5044432;28;20052;-34
2022/04/01 06:44:15;;;;;;;4.28;2.05;;;2.40;99.90;;;;;;5045383;28;20049;-33
2022/04/01 06:46:42;;;;;;;3.38;1.70;;;2.50;99.90;;;;;;5052830;28;20401;-34
2022/04/01 06:49:09;;;;;;;4.63;1.90;;;2.50;99.90;;;;;;5040573;28;20056;-34
2022/04/01 06:51:37;;;;;;;4.65;1.70;;;2.50;99.90;;;;;;5051316;28;20133;-34
2022/04/01 06:54:03;;;;;;;5.47;1.80;;;2.50;99.90;;;;;;5051756;28;20455;-34
2022/04/01 06:56:31;;;;;;;5.43;1.83;;;2.60;99.90;;;;;;5050451;28;20049;-34
2022/04/01 06:58:58;;;;;;;3.10;1.50;;;2.60;99.90;;;;;;5050535;28;20128;-34
2022/04/01 07:01:25;;;;;;;4.18;1.80;;;2.60;99.90;;;;;;5049976;28;20052;-34
2022/04/01 07:03:53;;;;;;;6.30;2.00;;;2.70;99.90;;;;;;5043650;28;20068;-34
2022/04/01 07:06:19;;;;;;;4.57;1.58;;;2.70;99.90;;;;;;5046943;28;20745;-35
2022/04/01 07:08:46;;;;;;;2.72;1.45;;;2.70;99.90;;;;;;5050100;28;20059;-34
2022/04/01 07:11:13;;;;;;;7.43;1.60;;;2.80;99.90;;;;;;5050859;28;20191;-34
2022/04/01 07:13:41;;;;;;;7.55;1.90;;;2.80;99.90;;;;;;5046696;28;20120;-34
2022/04/01 07:16:10;;;;;;;3.50;1.77;;;2.80;99.90;;;;;;5051150;28;20777;-34
2022/04/01 07:18:37;;;;;;;4.68;1.55;;;2.80;99.90;;;;;;5050776;28;20049;-34
2022/04/01 07:21:04;;;;;;;4.70;1.70;;;2.90;99.90;;;;;;5048380;28;20509;-34
2022/04/01 07:23:32;;;;;;;3.28;1.38;;;2.90;99.90;;;;;;5047068;28;20128;-35
2022/04/01 07:25:58;;;;;;;3.80;1.50;;;2.90;99.90;;;;;;5047372;28;20088;-35
2022/04/01 07:28:26;;;;;;;7.80;2.17;;;2.90;99.90;;;;;;5041731;28;20220;-35
2022/04/01 07:30:55;;;;;;;5.10;1.70;;;3.00;99.90;;;;;;5048811;28;20061;-34
2022/04/01 07:33:21;;;;;;;3.17;1.80;;;2.90;99.90;;;;;;5047872;28;20049;-33
2022/04/01 07:35:49;;;;;;;7.57;1.92;;;3.00;99.90;;;;;;5043813;28;20107;-34
2022/04/01 07:38:16;;;;;;;4.65;1.63;;;3.00;99.90;;;;;;5043669;28;20063;-35
2022/04/01 07:40:43;;;;;;;3.90;2.08;;;2.90;99.90;;;;;;5040115;28;20084;-35
2022/04/01 07:43:10;;;;;;;4.15;1.60;;;2.90;99.90;;;;;;5032581;28;20045;-35
2022/04/01 07:45:37;;;;;;;4.03;1.73;;;2.90;99.90;;;;;;5051725;28;20045;-35
2022/04/01 07:48:07;;;;;;;6.25;2.10;;;2.90;99.90;;;;;;5050374;28;20134;-35
2022/04/01 07:50:34;;;;;;;5.68;2.20;;;2.90;99.90;;;;;;5051613;28;20103;-35
2022/04/01 07:53:03;;;;;;;5.72;1.92;;;2.90;99.90;;;;;;5035230;28;20767;-35
2022/04/01 07:55:30;;;;;;;3.47;1.90;;;2.90;99.90;;;;;;5045920;28;20511;-35
2022/04/01 07:57:57;;;;;;;4.00;2.22;;;2.90;99.90;;;;;;5048860;28;20060;-35
2022/04/01 08:00:23;;;;;;;6.55;2.03;;;2.80;99.90;;;;;;5039601;28;20053;-35
2022/04/01 08:02:53;;;;;;;4.57;2.08;;;2.90;99.90;;;;;;5049648;28;20135;-35
2022/04/01 08:05:21;;;;;;;4.07;2.17;;;2.80;99.90;;;;;;5049559;28;20159;-35
2022/04/01 08:07:48;;;;;;;3.90;1.80;;;2.70;99.90;;;;;;5038954;28;20053;-35
2022/04/01 08:10:15;;;;;;;8.27;2.20;;;2.70;99.90;;;;;;5036938;28;20149;-35
2022/04/01 08:12:42;;;;;;;5.78;2.13;;;2.70;99.90;;;;;;5047061;28;20151;-35
2022/04/01 08:15:10;;;;;;;4.68;2.33;;;2.70;99.90;;;;;;5047590;28;20406;-34
2022/04/01 08:17:37;;;;;;;6.95;2.53;;;2.70;99.90;;;;;;5046568;28;20502;-34
2022/04/01 08:20:05;;;;;;;8.43;2.47;;;2.60;99.90;;;;;;5040045;28;21270;-34
2022/04/01 08:22:33;;;;;;;7.10;2.53;;;2.70;99.90;;;;;;5038952;28;20540;-34
2022/04/01 08:24:59;;;;;;;4.82;2.55;;;2.60;99.90;;;;;;5043804;28;20548;-35
2022/04/01 08:27:26;;;;;;;7.72;2.90;;;2.60;99.90;;;;;;5052499;28;20128;-34
2022/04/01 08:29:59;;;;;;;5.22;2.78;;;2.70;99.90;;;;;;5052146;28;20045;-36
2022/04/01 08:32:25;;;;;;;6.90;2.88;;;2.70;99.90;;;;;;5054863;28;20048;-37
2022/04/01 08:34:52;;;;;;;8.68;3.92;;;2.60;99.90;;;;;;5050681;28;20520;-37
2022/04/01 08:37:19;;;;;;;5.60;3.47;;;2.60;99.90;;;;;;5048345;28;20049;-37
2022/04/01 08:39:47;;;;;;;6.07;3.85;;;2.60;99.90;;;;;;5048788;28;20056;-37
2022/04/01 08:42:14;;;;;;;5.30;3.60;;;2.70;99.90;;;;;;5050989;28;20114;-37
2022/04/01 08:44:41;;;;;;;4.90;3.58;;;2.70;99.90;;;;;;5053231;28;20127;-37
2022/04/01 08:47:08;;;;;;;5.82;3.67;;;2.70;99.90;;;;;;5052219;28;20182;-36
2022/04/01 08:49:35;;;;;;;8.52;4.07;;;2.80;99.90;;;;;;5053910;28;20049;-36
2022/04/01 08:52:02;;;;;;;7.05;3.88;;;2.80;99.90;;;;;;5054306;28;20053;-36
2022/04/01 08:54:32;;;;;;;6.30;4.07;;;2.80;99.90;;;;;;5053937;28;20056;-35
2022/04/01 08:57:00;;;;;;;8.40;4.40;;;2.90;99.90;;;;;;5050954;28;20124;-35
2022/04/01 08:59:28;;;;;;;6.10;4.18;;;2.90;99.90;;;;;;5053864;28;20063;-35
2022/04/01 09:02:02;;;;;;;10.43;5.07;;;3.00;99.90;;;;;;5051069;28;20063;-34
2022/04/01 09:04:29;;;;;;;7.47;4.72;;;3.00;99.90;;;;;;5053141;28;20460;-34
2022/04/01 09:06:55;;;;;;;11.32;5.32;;;3.00;99.90;;;;;;5052354;28;20614;-35
2022/04/01 09:09:26;;;;;;;11.73;5.03;;;3.00;99.90;;;;;;5049396;28;20041;-35
2022/04/01 09:12:08;;;;;;;8.45;5.13;;;3.10;99.90;;;;;;5053275;28;20107;-34
2022/04/01 09:14:34;;;;;;;;;;;3.10;99.90;;;;;;5053898;28;20396;-35
2022/04/01 09:17:01;;;;;;;8.63;4.95;;;3.10;99.90;;;;;;5068093;28;20003;-35
2022/04/01 09:19:32;;;;;;;9.80;5.05;;;3.20;99.90;;;;;;5052308;28;20417;-35
2022/04/01 09:21:58;;;;;;;13.68;5.78;;;3.20;99.90;;;;;;5048189;28;20400;-35
2022/04/01 09:24:26;;;;;;;9.88;5.72;;;3.10;99.90;;;;;;5051793;28;20052;-35
2022/04/01 09:26:55;;;;;;;8.23;5.30;;;3.10;99.90;;;;;;5054568;28;20477;-35
2022/04/01 09:29:24;;;;;;;11.05;6.07;;;3.10;99.90;;;;;;5053294;28;20489;-35
2022/04/01 09:31:52;;;;;;;9.15;5.20;;;3.10;99.90;;;;;;5054515;28;20060;-34
2022/04/01 09:34:19;;;;;;;8.15;4.80;;;3.10;99.90;;;;;;5050753;28;20051;-33
2022/04/01 09:36:46;;;;;;;10.85;6.05;;;3.10;99.90;;;;;;5054150;28;20095;-33
2022/04/01 09:39:13;;;;;;;9.35;5.70;;;3.20;99.90;;;;;;5041284;28;20124;-34
2022/04/01 09:41:42;;;;;;;8.30;5.45;;;3.20;99.90;;;;;;5037709;28;20044;-32
2022/04/01 09:44:10;;;;;;;11.27;6.05;;;3.10;99.90;;;;;;5041610;28;20100;-33
2022/04/01 09:46:43;;;;;;;11.65;6.30;;;3.10;99.90;;;;;;5049740;28;20219;-33
2022/04/01 09:49:10;;;;;;;10.48;6.28;;;3.10;99.90;;;;;;5052930;28;20404;-32
2022/04/01 09:51:40;;;;;;;9.32;5.93;;;3.10;99.90;;;;;;5054275;28;20557;-34
2022/04/01 09:54:07;;;;;;;9.32;5.68;;;3.10;99.90;;;;;;5053550;28;20060;-33
2022/04/01 09:56:41;;;;;;;11.35;5.40;;;3.10;99.90;;;;;;5052319;28;20083;-33
2022/04/01 09:59:08;;;;;;;10.40;6.40;;;3.00;99.90;;;;;;5053634;28;20060;-32
2022/04/01 10:01:36;;;;;;;9.02;5.75;;;2.90;99.90;;;;;;5052569;28;20048;-34
2022/04/01 10:04:04;;;;;;;9.35;5.93;;;2.90;99.90;;;;;;5052930;28;20083;-33
2022/04/01 10:06:32;;;;;;;10.18;6.20;;;2.90;99.90;;;;;;5049765;28;20045;-34
2022/04/01 10:09:01;;;;;;;11.73;6.10;;;2.90;99.90;;;;;;5048154;28;20131;-34
2022/04/01 10:11:27;;;;;;;13.35;6.40;;;3.00;99.90;;;;;;5050409;28;20045;-35
2022/04/01 10:13:54;;;;;;;8.32;5.95;;;3.10;99.90;;;;;;5051072;28;20439;-34
2022/04/01 10:16:21;;;;;;;9.13;5.93;;;3.20;99.90;;;;;;5052077;28;20045;-33
2022/04/01 10:18:48;;;;;;;9.57;6.22;;;3.20;99.90;;;;;;5052015;28;20041;-33
2022/04/01 10:21:18;;;;;;;10.05;5.85;;;3.10;99.90;;;;;;5053121;28;20052;-34
2022/04/01 10:23:56;;;;;;;8.63;5.40;;;3.10;99.90;;;;;;5052408;28;20049;-34
2022/04/01 10:26:23;;;;;;;10.23;5.90;;;3.20;99.90;;;;;;5049962;28;20507;-33
2022/04/01 10:28:51;;;;;;;9.10;5.03;;;3.40;99.90;;;;;;5050184;28;20044;-33
2022/04/01 10:31:19;;;;;;;9.90;5.55;;;3.50;99.90;;;;;;5063003;28;20049;-33
2022/04/01 10:33:45;;;;;;;9.70;5.88;;;3.50;99.90;;;;;;5052329;28;20056;-33
2022/04/01 10:36:17;;;;;;;11.00;6.18;;;3.50;99.90;;;;;;5052605;28;20049;-33
2022/04/01 10:38:46;;;;;;;10.25;5.97;;;3.40;99.90;;;;;;5052682;28;20480;-33
2022/04/01 10:41:13;;;;;;;10.18;6.03;;;3.60;99.90;;;;;;5052120;28;20049;-33
2022/04/01 10:43:41;;;;;;;7.55;4.53;;;3.70;99.90;;;;;;5051204;28;20053;-33
2022/04/01 10:46:08;;;;;;;8.52;4.47;;;3.80;99.90;;;;;;5051473;28;20056;-33
2022/04/01 10:51:41;;;;;;;11.82;4.10;;;3.80;99.90;;;;;;5047629;28;20052;-33
2022/04/01 10:54:42;;;;;;;5.72;3.78;;;4.00;99.90;;;;;;5042716;28;20056;-33
2022/04/01 10:57:10;;;;;;;5.43;3.08;;;4.20;99.90;;;;;;4991358;28;20483;-33
2022/04/01 10:59:41;;;;;;;8.43;3.83;;;4.30;99.90;;;;;;5041804;28;20076;-34
2022/04/01 11:02:09;;;;;;;6.47;2.80;;;4.40;99.90;;;;;;5053040;28;20053;-34
2022/04/01 11:04:37;;;;;;;4.78;2.65;;;4.50;99.90;;;;;;5053129;28;20041;-34
2022/04/01 11:07:07;;;;;;;3.97;2.60;;;4.40;99.90;;;;;;5055508;28;20397;-34
2022/04/01 11:09:34;;;;;;;5.20;3.20;;;4.40;99.90;;;;;;5059418;28;20052;-33
2022/04/01 11:12:25;;;;;;;4.65;2.53;;;4.30;99.90;;;;;;5050625;28;20229;-33
2022/04/01 11:15:12;;;;;;;6.22;2.95;;;4.30;99.90;;;;;;5048859;28;20036;-33
2022/04/01 11:18:09;;;;;;;4.15;2.50;;;4.20;99.90;;;;;;5061576;28;20048;-33
2022/04/01 11:20:39;;;;;;;7.85;3.13;;;4.00;99.90;;;;;;4994709;28;20054;-33
2022/04/01 11:23:10;;;;;;;5.90;2.90;;;3.80;99.90;;;;;;5043846;28;20440;-32
2022/04/01 11:25:57;;;;;;;6.43;2.97;;;3.80;99.90;;;;;;5053045;28;20265;-33
2022/04/01 11:28:25;;;;;;;5.45;2.67;;;3.90;99.90;;;;;;5068256;28;20060;-33
2022/04/01 11:31:06;;;;;;;8.20;2.78;;;3.90;99.90;;;;;;5051356;28;20103;-32
2022/04/01 11:33:33;;;;;;;5.10;2.92;;;4.10;99.90;;;;;;5052991;28;20457;-32
2022/04/01 11:35:59;;;;;;;6.95;3.17;;;4.20;99.90;;;;;;5051006;28;20335;-33
2022/04/01 11:38:28;;;;;;;5.63;2.92;;;4.30;99.90;;;;;;5051074;28;20060;-33
2022/04/01 11:40:56;;;;;;;5.38;2.60;;;4.50;99.90;;;;;;5034727;28;20572;-34
2022/04/01 11:43:24;;;;;;;5.78;2.40;;;4.40;99.90;;;;;;5050569;28;20047;-34
2022/04/01 11:45:54;;;;;;;4.82;2.38;;;4.30;99.90;;;;;;5051581;28;20053;-34
2022/04/01 11:48:22;;;;;;;5.47;2.45;;;4.20;99.90;;;;;;5051417;28;20508;-34
2022/04/01 11:50:50;;;;;;;2.72;2.20;;;4.20;99.90;;;;;;5051807;28;20045;-34
2022/04/01 11:53:20;;;;;;;5.53;2.45;;;4.20;99.90;;;;;;5052345;28;20061;-34
2022/04/01 11:55:48;;;;;;;4.13;2.10;;;4.20;99.90;;;;;;5049579;28;20084;-34
2022/04/01 11:58:15;;;;;;;5.57;2.55;;;4.30;99.90;;;;;;5052300;28;20049;-34
2022/04/01 12:00:41;;;;;;;2.60;1.88;;;4.20;99.90;;;;;;5049495;28;20408;-34
2022/04/01 12:03:09;;;;;;;8.40;2.45;;;4.20;99.90;;;;;;5049061;28;20053;-34
2022/04/01 12:05:36;;;;;;;6.28;2.13;;;4.30;99.90;;;;;;5051817;28;20049;-34
2022/04/01 12:10:53;;;;;;;3.95;2.08;;;4.40;99.90;;;;;;5053732;28;20095;-34
2022/04/01 12:13:19;;;;;;;;;;;4.40;99.90;;;;;;5052580;28;20041;-34
2022/04/01 12:15:47;;;;;;;3.90;1.80;;;4.50;99.90;;;;;;5056652;28;19921;-34
2022/04/01 12:18:14;;;;;;;3.05;1.77;;;4.40;99.90;;;;;;5051075;28;20051;-34
2022/04/01 12:20:41;;;;;;;5.47;2.35;;;4.40;99.90;;;;;;5051752;28;20115;-34
2022/04/01 12:23:08;;;;;;;5.32;2.28;;;4.50;99.90;;;;;;5051932;28;20065;-34
2022/04/01 12:25:36;;;;;;;3.60;1.95;;;4.60;99.90;;;;;;5051459;28;20136;-32
2022/04/01 12:28:07;;;;;;;5.18;1.80;;;4.60;99.90;;;;;;5048637;28;20107;-33
2022/04/01 12:30:35;;;;;;;3.03;1.92;;;4.70;99.90;;;;;;5050987;28;20045;-33
2022/04/01 12:33:03;;;;;;;5.38;2.13;;;4.60;99.90;;;;;;5049878;28;20045;-33
2022/04/01 12:35:29;;;;;;;3.78;1.90;;;4.50;99.90;;;;;;5050787;28;20087;-34
2022/04/01 12:38:06;;;;;;;4.57;1.85;;;4.60;99.90;;;;;;5050995;28;20507;-34
2022/04/01 12:40:49;;;;;;;5.68;2.00;;;4.60;99.90;;;;;;5049622;28;20063;-33
2022/04/01 12:43:52;;;;;;;6.30;2.42;;;4.60;99.90;;;;;;5050962;28;20412;-33
2022/04/01 12:46:19;;;;;;;5.47;2.30;;;4.60;99.90;;;;;;5021177;28;20054;-34
2022/04/01 12:48:47;;;;;;;3.53;1.90;;;4.60;99.90;;;;;;5008498;28;20136;-33
2022/04/01 12:51:21;;;;;;;7.80;2.20;;;4.60;99.90;;;;;;5025724;28;20046;-33
2022/04/01 12:54:04;;;;;;;7.38;1.90;;;4.60;99.90;;;;;;5048389;28;20061;-34
2022/04/01 12:56:33;;;;;;;6.03;2.20;;;4.70;99.90;;;;;;5048906;28;20129;-34
2022/04/01 12:59:03;;;;;;;3.60;2.17;;;4.70;99.90;;;;;;5068615;28;20127;-33
2022/04/01 13:01:31;;;;;;;4.97;2.20;;;4.90;99.90;;;;;;5048013;28;20085;-33
2022/04/01 13:03:58;;;;;;;7.07;2.00;;;5.00;99.90;;;;;;5053593;28;20053;-33
2022/04/01 13:06:25;;;;;;;5.85;2.28;;;5.00;99.90;;;;;;5052700;28;20060;-34
2022/04/01 13:09:04;;;;;;;5.90;2.00;;;5.10;99.90;;;;;;5047123;28;20052;-33
2022/04/01 13:11:38;;;;;;;3.90;2.25;;;5.10;99.60;;;;;;5050210;28;20053;-33
2022/04/01 13:14:07;;;;;;;6.57;2.10;;;5.10;99.90;;;;;;5050601;28;20049;-33
2022/04/01 13:16:40;;;;;;;6.97;2.20;;;5.20;99.90;;;;;;5054423;28;20053;-33